Terminal Aerodrome Forecast
Issued by NWS Topeka, KS

Current Version | Previous Version | Text Only | Print | Product List | Glossary On
Versions: 1 2 3 4 5 6 7 8 9 10 11 12 13 14 15 16 17 18 19 20 21 22 23 24 25 26
000
FTUS43 KTOP 250800 AAA
TAFTOP
TAF AMD
KTOP 250821Z 2508/2606 00000KT 2SM BR BCFG SKC
      TEMPO 2510/2513 1/2SM FG
     FM251500 06004KT P6SM SKC=

USA.gov is the U.S. government's official web portal to all federal, state and local government web resources and services.